createdAt,value
2022-07-29T00:00:00.802Z,20.06
2022-07-29T00:02:28.956Z,20.23
2022-07-29T00:04:56.108Z,20.32
2022-07-29T00:07:22.996Z,20.24
2022-07-29T00:09:50.753Z,20.24
2022-07-29T00:12:25.235Z,20.11
2022-07-29T00:14:56.889Z,20.09
2022-07-29T00:17:25.090Z,20.08
2022-07-29T00:19:52.166Z,20.08
2022-07-29T00:22:19.677Z,20.18
2022-07-29T00:24:48.014Z,19.59
2022-07-29T00:27:14.770Z,20.02
2022-07-29T00:29:41.566Z,20.08
2022-07-29T00:32:08.652Z,20.17
2022-07-29T00:34:53.851Z,20.23
2022-07-29T00:37:20.840Z,20.04
2022-07-29T00:39:47.626Z,20.23
2022-07-29T00:42:14.467Z,20.07
2022-07-29T00:44:42.416Z,20.11
2022-07-29T00:47:13.034Z,20.10
2022-07-29T00:49:41.169Z,20.21
2022-07-29T00:52:09.930Z,20.23
2022-07-29T00:54:44.076Z,20.23
2022-07-29T00:57:11.713Z,20.13
2022-07-29T00:59:38.537Z,20.04
2022-07-29T01:02:05.608Z,20.17
2022-07-29T01:04:33.211Z,20.20
2022-07-29T01:07:03.119Z,20.09
2022-07-29T01:09:40.844Z,20.07
2022-07-29T01:12:20.155Z,20.02
2022-07-29T01:14:49.044Z,19.91
2022-07-29T01:17:39.127Z,19.76
2022-07-29T01:20:21.380Z,19.70
2022-07-29T01:23:25.426Z,19.81
2022-07-29T01:26:25.565Z,19.83
2022-07-29T01:29:04.030Z,19.86
2022-07-29T01:31:41.465Z,19.77
2022-07-29T01:34:30.672Z,19.87
2022-07-29T01:37:21.243Z,19.73
2022-07-29T01:39:51.610Z,19.41
2022-07-29T01:42:18.304Z,19.91
2022-07-29T01:45:20.559Z,19.77
2022-07-29T01:47:59.342Z,19.86
2022-07-29T01:50:50.409Z,19.86
2022-07-29T01:53:30.274Z,19.81
2022-07-29T01:56:07.657Z,19.92
2022-07-29T01:58:37.835Z,19.66
2022-07-29T02:01:06.530Z,19.75
2022-07-29T02:03:36.981Z,19.72
2022-07-29T02:06:07.539Z,19.75
2022-07-29T02:08:35.348Z,19.88
2022-07-29T02:11:04.808Z,19.67
2022-07-29T02:13:34.493Z,19.87
2022-07-29T02:16:03.674Z,19.84
2022-07-29T02:18:32.056Z,19.88
2022-07-29T02:21:01.948Z,19.77
2022-07-29T02:23:28.724Z,19.84
2022-07-29T02:26:00.505Z,19.87
2022-07-29T02:28:29.849Z,19.61
2022-07-29T02:30:59.114Z,19.83
2022-07-29T02:33:27.603Z,19.82
2022-07-29T02:35:56.052Z,19.73
2022-07-29T02:38:44.599Z,19.59
2022-07-29T02:41:18.567Z,19.77
2022-07-29T02:43:49.013Z,19.71
2022-07-29T02:46:28.931Z,19.77
2022-07-29T02:49:16.882Z,19.58
2022-07-29T02:51:54.122Z,19.72
2022-07-29T02:54:51.364Z,19.56
2022-07-29T02:58:00.703Z,19.69
2022-07-29T03:00:32.844Z,19.63
2022-07-29T03:03:04.692Z,19.51
2022-07-29T03:05:32.469Z,19.63
2022-07-29T03:08:04.279Z,19.58
2022-07-29T03:10:32.327Z,19.61
2022-07-29T03:13:00.080Z,19.57
2022-07-29T03:15:28.288Z,19.47
2022-07-29T03:17:56.781Z,19.38
2022-07-29T03:20:23.912Z,19.44
2022-07-29T03:22:51.417Z,19.41
2022-07-29T03:25:19.807Z,19.42
2022-07-29T03:27:47.485Z,19.44
2022-07-29T03:30:21.804Z,19.30
2022-07-29T03:32:52.274Z,19.64
2022-07-29T03:35:23.823Z,19.57
2022-07-29T03:37:50.829Z,19.52
2022-07-29T03:40:23.036Z,19.68
2022-07-29T03:42:51.156Z,19.58
2022-07-29T03:45:20.339Z,19.64
2022-07-29T03:47:59.918Z,19.45
2022-07-29T03:50:30.123Z,19.51
2022-07-29T03:52:57.366Z,19.68
2022-07-29T03:55:25.070Z,19.35
2022-07-29T03:57:52.362Z,19.62
2022-07-29T04:00:20.657Z,19.52
2022-07-29T04:02:50.098Z,19.53
2022-07-29T04:05:18.284Z,19.41
2022-07-29T04:07:51.333Z,19.47
2022-07-29T04:10:26.916Z,19.36
2022-07-29T04:12:59.035Z,19.28
2022-07-29T04:15:26.054Z,19.18
2022-07-29T04:17:58.011Z,19.27
2022-07-29T04:20:24.941Z,19.28
2022-07-29T04:22:51.737Z,19.25
2022-07-29T04:25:18.607Z,19.30
2022-07-29T04:28:04.102Z,19.28
2022-07-29T04:30:32.408Z,19.13
2022-07-29T04:32:59.559Z,19.04
2022-07-29T04:35:26.556Z,19.01
2022-07-29T04:37:53.546Z,19.00
2022-07-29T04:40:20.652Z,19.00
2022-07-29T04:42:48.085Z,19.17
2022-07-29T04:45:16.377Z,19.14
2022-07-29T04:47:43.362Z,19.14
2022-07-29T04:50:11.022Z,18.97
2022-07-29T04:52:38.093Z,18.92
2022-07-29T04:55:06.449Z,19.11
2022-07-29T04:57:33.357Z,19.08
2022-07-29T05:00:00.232Z,19.11
2022-07-29T05:02:27.133Z,19.24
2022-07-29T05:04:54.191Z,19.29
2022-07-29T05:07:21.237Z,19.29
2022-07-29T05:09:48.292Z,19.20
2022-07-29T05:12:15.458Z,19.25
2022-07-29T05:14:42.302Z,19.28
2022-07-29T05:17:09.215Z,19.20
2022-07-29T05:19:39.780Z,19.17
2022-07-29T05:22:06.851Z,19.38
2022-07-29T05:24:33.798Z,19.15
2022-07-29T05:27:00.748Z,19.14
2022-07-29T05:29:44.414Z,19.12
2022-07-29T05:32:13.079Z,19.23
2022-07-29T05:34:50.845Z,19.24
2022-07-29T05:37:22.199Z,19.17
2022-07-29T05:39:56.274Z,19.31
2022-07-29T05:42:24.180Z,19.29
2022-07-29T05:44:50.991Z,19.33
2022-07-29T05:47:17.924Z,19.34
2022-07-29T05:49:44.841Z,19.29
2022-07-29T05:52:11.735Z,19.21
2022-07-29T05:54:38.762Z,19.24
2022-07-29T05:57:06.520Z,19.21
2022-07-29T05:59:37.577Z,19.37
2022-07-29T06:02:06.381Z,19.39
2022-07-29T06:04:34.652Z,19.42
2022-07-29T06:07:02.966Z,19.58
2022-07-29T06:09:30.238Z,19.50
2022-07-29T06:11:57.221Z,19.71
2022-07-29T06:14:23.967Z,19.75
2022-07-29T06:16:50.925Z,19.81
2022-07-29T06:19:17.776Z,19.90
2022-07-29T06:21:45.005Z,20.09
2022-07-29T06:24:14.063Z,20.29
2022-07-29T06:26:42.011Z,20.56
2022-07-29T06:29:11.696Z,20.86
2022-07-29T06:31:39.278Z,21.18
2022-07-29T06:34:06.193Z,21.39
2022-07-29T06:36:36.720Z,21.67
2022-07-29T06:39:08.384Z,21.90
2022-07-29T06:41:35.174Z,22.47
2022-07-29T06:44:02.456Z,22.80
2022-07-29T06:46:30.296Z,22.89
2022-07-29T06:48:57.301Z,23.11
2022-07-29T06:51:24.404Z,23.41
2022-07-29T06:53:59.851Z,23.72
2022-07-29T06:56:39.284Z,23.94
2022-07-29T06:59:08.349Z,24.18
2022-07-29T07:01:36.181Z,24.52
2022-07-29T07:04:03.262Z,24.69
2022-07-29T07:06:30.221Z,25.10
2022-07-29T07:08:57.002Z,25.40
2022-07-29T07:11:23.948Z,25.50
2022-07-29T07:13:51.012Z,25.81
2022-07-29T07:16:17.946Z,26.23
2022-07-29T07:18:46.339Z,26.36
2022-07-29T07:21:19.326Z,26.62
2022-07-29T07:23:47.203Z,26.66
2022-07-29T07:26:14.136Z,26.77
2022-07-29T07:28:41.020Z,26.89
2022-07-29T07:31:07.913Z,27.07
2022-07-29T07:33:34.781Z,27.33
2022-07-29T07:36:01.589Z,27.34
2022-07-29T07:38:28.406Z,27.49
2022-07-29T07:40:55.503Z,28.14
2022-07-29T07:43:22.960Z,28.35
2022-07-29T07:45:49.908Z,28.51
2022-07-29T07:48:16.844Z,28.61
2022-07-29T07:50:44.885Z,28.71
2022-07-29T07:53:11.855Z,28.81
2022-07-29T07:56:09.308Z,29.02
2022-07-29T07:58:32.196Z,29.10
2022-07-29T08:00:59.219Z,29.40
2022-07-29T08:03:26.039Z,29.53
2022-07-29T08:05:53.027Z,29.68
2022-07-29T08:08:20.113Z,29.78
2022-07-29T08:10:53.610Z,29.78
2022-07-29T08:13:22.259Z,29.98
2022-07-29T08:15:58.586Z,30.01
2022-07-29T08:18:26.863Z,30.19
2022-07-29T08:20:53.711Z,30.19
2022-07-29T08:23:21.678Z,30.16
2022-07-29T08:25:50.125Z,30.40
2022-07-29T08:28:18.482Z,30.43
2022-07-29T08:30:45.685Z,30.51
2022-07-29T08:33:12.747Z,30.67
2022-07-29T08:35:40.924Z,30.78
2022-07-29T08:38:07.720Z,30.93
2022-07-29T08:40:34.667Z,31.06
2022-07-29T08:43:09.112Z,31.28
2022-07-29T08:45:48.101Z,31.29
2022-07-29T08:48:17.748Z,31.52
2022-07-29T08:50:46.416Z,31.47
2022-07-29T08:53:15.722Z,31.59
2022-07-29T08:55:49.885Z,31.62
2022-07-29T08:58:17.630Z,31.63
2022-07-29T09:00:46.942Z,31.61
2022-07-29T09:03:19.190Z,31.63
2022-07-29T09:05:49.571Z,31.72
2022-07-29T09:08:17.441Z,31.86
2022-07-29T09:10:45.999Z,32.10
2022-07-29T09:13:12.986Z,32.13
2022-07-29T09:15:39.766Z,32.15
2022-07-29T09:18:06.633Z,32.24
2022-07-29T09:20:52.113Z,32.32
2022-07-29T09:23:24.248Z,32.35
2022-07-29T09:25:51.690Z,32.61
2022-07-29T09:28:19.340Z,32.84
2022-07-29T09:30:59.314Z,32.98
2022-07-29T09:33:35.796Z,32.90
2022-07-29T09:36:06.434Z,33.23
2022-07-29T09:38:33.797Z,33.33
2022-07-29T09:41:05.812Z,33.10
2022-07-29T09:43:33.537Z,33.32
2022-07-29T09:46:14.812Z,33.11
2022-07-29T09:48:42.037Z,33.22
2022-07-29T09:51:26.888Z,33.29
2022-07-29T09:54:24.518Z,33.32
2022-07-29T09:56:51.359Z,33.49
2022-07-29T09:59:18.659Z,33.23
2022-07-29T10:01:45.732Z,33.09
2022-07-29T10:04:12.812Z,32.91
2022-07-29T10:07:04.770Z,32.68
2022-07-29T10:09:32.960Z,32.55
2022-07-29T10:12:14.953Z,32.71
2022-07-29T10:14:42.962Z,32.94
2022-07-29T10:17:11.417Z,33.10
2022-07-29T10:19:39.516Z,33.42
2022-07-29T10:22:09.682Z,33.45
2022-07-29T10:24:38.353Z,33.36
2022-07-29T10:27:08.309Z,33.40
2022-07-29T10:29:35.570Z,33.45
2022-07-29T10:32:21.437Z,33.51
2022-07-29T10:34:58.990Z,33.75
2022-07-29T10:37:36.139Z,33.62
2022-07-29T10:40:43.847Z,33.37
2022-07-29T10:43:34.115Z,33.65
2022-07-29T10:46:02.217Z,34.01
2022-07-29T10:48:29.336Z,33.92
2022-07-29T10:51:00.204Z,33.66
2022-07-29T10:53:50.625Z,33.54
2022-07-29T10:56:32.343Z,33.53
2022-07-29T10:59:21.461Z,33.63
2022-07-29T11:01:53.417Z,33.72
2022-07-29T11:05:00.415Z,33.61
2022-07-29T11:07:28.133Z,33.56
2022-07-29T11:10:16.456Z,33.20
2022-07-29T11:12:43.644Z,33.41
2022-07-29T11:15:24.999Z,33.21
2022-07-29T11:17:54.845Z,33.41
2022-07-29T11:20:42.477Z,33.32
2022-07-29T11:23:20.616Z,33.47
2022-07-29T11:26:23.391Z,33.28
2022-07-29T11:28:56.366Z,33.26
2022-07-29T11:31:52.714Z,33.37
2022-07-29T11:34:34.822Z,33.52
2022-07-29T11:37:10.765Z,33.70
2022-07-29T11:40:10.223Z,33.70
2022-07-29T11:42:37.150Z,33.85
2022-07-29T11:45:43.056Z,33.92
2022-07-29T11:48:29.059Z,33.93
2022-07-29T11:50:49.248Z,34.02
2022-07-29T11:53:17.289Z,34.42
2022-07-29T11:55:51.070Z,34.77
2022-07-29T11:58:26.570Z,34.22
2022-07-29T12:00:55.503Z,33.69
2022-07-29T12:03:33.381Z,33.58
2022-07-29T12:06:14.195Z,33.72
2022-07-29T12:08:47.549Z,34.31
2022-07-29T12:11:22.741Z,34.57
2022-07-29T12:13:52.356Z,34.65
2022-07-29T12:16:27.661Z,35.14
2022-07-29T12:19:02.311Z,35.88
2022-07-29T12:21:31.204Z,36.45
2022-07-29T12:24:05.962Z,36.94
2022-07-29T12:26:36.100Z,37.40
2022-07-29T12:29:03.549Z,38.30
2022-07-29T12:31:44.011Z,38.91
2022-07-29T12:34:13.545Z,38.70
2022-07-29T12:36:41.520Z,38.69
2022-07-29T12:39:10.264Z,38.91
2022-07-29T12:41:37.490Z,39.18
2022-07-29T12:44:04.485Z,39.13
2022-07-29T12:46:31.503Z,39.25
2022-07-29T12:48:59.796Z,38.97
2022-07-29T12:51:44.525Z,39.09
2022-07-29T12:54:14.635Z,39.09
2022-07-29T12:56:44.402Z,39.77
2022-07-29T12:59:22.824Z,39.90
2022-07-29T13:01:52.506Z,39.70
2022-07-29T13:04:31.245Z,39.55
2022-07-29T13:07:09.197Z,39.30
2022-07-29T13:09:46.735Z,35.64
2022-07-29T13:12:14.876Z,33.71
2022-07-29T13:14:43.018Z,32.19
2022-07-29T13:17:12.670Z,31.14
2022-07-29T13:19:44.718Z,30.28
2022-07-29T13:22:16.996Z,29.95
2022-07-29T13:24:57.262Z,29.70
2022-07-29T13:27:29.660Z,29.25
2022-07-29T13:29:58.775Z,29.15
2022-07-29T13:32:28.997Z,28.97
2022-07-29T13:35:01.610Z,28.72
2022-07-29T13:37:35.218Z,28.54
2022-07-29T13:40:04.517Z,28.62
2022-07-29T13:42:31.627Z,28.55
2022-07-29T13:44:58.765Z,28.56
2022-07-29T13:47:32.185Z,28.58
2022-07-29T13:49:59.843Z,28.45
2022-07-29T13:52:26.722Z,28.31
2022-07-29T13:54:53.653Z,28.40
2022-07-29T13:57:20.709Z,28.42
2022-07-29T13:59:51.995Z,28.24
2022-07-29T14:02:21.116Z,28.31
2022-07-29T14:04:52.648Z,28.32
2022-07-29T14:07:19.510Z,28.21
2022-07-29T14:09:46.270Z,27.93
2022-07-29T14:12:13.357Z,28.00
2022-07-29T14:14:40.140Z,27.94
2022-07-29T14:17:09.727Z,27.89
2022-07-29T14:19:36.943Z,27.64
2022-07-29T14:22:09.093Z,27.51
2022-07-29T14:24:39.454Z,27.44
2022-07-29T14:27:07.377Z,27.52
2022-07-29T14:29:37.440Z,27.55
2022-07-29T14:32:09.282Z,27.22
2022-07-29T14:34:39.313Z,27.38
2022-07-29T14:37:06.899Z,27.23
2022-07-29T14:39:38.182Z,27.27
2022-07-29T14:42:09.508Z,27.17
2022-07-29T14:44:38.705Z,27.09
2022-07-29T14:47:07.411Z,27.00
2022-07-29T14:49:35.164Z,27.14
2022-07-29T14:52:02.371Z,27.09
2022-07-29T14:54:29.381Z,27.16
2022-07-29T14:56:58.453Z,27.11
2022-07-29T14:59:25.915Z,27.17
2022-07-29T15:01:52.896Z,27.07
2022-07-29T15:04:20.306Z,27.14
2022-07-29T15:06:47.147Z,27.23
2022-07-29T15:09:14.639Z,27.23
2022-07-29T15:11:41.595Z,27.23
2022-07-29T15:14:08.649Z,27.02
2022-07-29T15:16:39.665Z,27.03
2022-07-29T15:19:10.914Z,26.79
2022-07-29T15:21:41.618Z,26.96
2022-07-29T15:24:18.774Z,26.81
2022-07-29T15:26:46.230Z,26.82
2022-07-29T15:29:13.282Z,26.58
2022-07-29T15:31:40.680Z,26.63
2022-07-29T15:34:08.264Z,26.64
2022-07-29T15:36:51.564Z,26.52
2022-07-29T15:39:19.710Z,26.52
2022-07-29T15:41:47.011Z,26.56
2022-07-29T15:44:14.178Z,26.59
2022-07-29T15:47:00.569Z,26.60
2022-07-29T15:49:47.037Z,26.49
2022-07-29T15:52:26.076Z,26.73
2022-07-29T15:54:56.942Z,26.80
2022-07-29T15:57:25.120Z,26.80
2022-07-29T15:59:52.385Z,26.76
2022-07-29T16:02:19.670Z,26.83
2022-07-29T16:04:46.707Z,26.75
2022-07-29T16:07:14.268Z,26.76
2022-07-29T16:09:41.876Z,26.77
2022-07-29T16:12:14.664Z,26.90
2022-07-29T16:14:42.202Z,26.78
2022-07-29T16:17:09.125Z,26.83
2022-07-29T16:19:41.116Z,26.77
2022-07-29T16:22:07.860Z,26.82
2022-07-29T16:24:34.773Z,26.72
2022-07-29T16:27:02.009Z,26.64
2022-07-29T16:29:29.259Z,26.90
2022-07-29T16:31:56.206Z,26.86
2022-07-29T16:34:23.057Z,26.92
2022-07-29T16:36:49.810Z,27.00
2022-07-29T16:39:16.854Z,26.89
2022-07-29T16:41:43.689Z,26.91
2022-07-29T16:44:10.457Z,27.01
2022-07-29T16:46:37.580Z,26.98
2022-07-29T16:49:07.043Z,26.99
2022-07-29T16:51:34.014Z,26.86
2022-07-29T16:54:00.901Z,27.04
2022-07-29T16:56:27.762Z,27.07
2022-07-29T16:58:54.534Z,27.02
2022-07-29T17:01:21.530Z,27.09
2022-07-29T17:04:06.750Z,27.02
2022-07-29T17:06:35.449Z,27.04
2022-07-29T17:09:06.929Z,27.05
2022-07-29T17:11:52.477Z,27.03
2022-07-29T17:14:24.168Z,27.00
2022-07-29T17:17:01.245Z,26.88
2022-07-29T17:19:34.240Z,27.09
2022-07-29T17:22:10.503Z,27.13
2022-07-29T17:24:41.363Z,27.10
2022-07-29T17:27:09.463Z,27.22
2022-07-29T17:29:36.389Z,27.19
2022-07-29T17:32:03.843Z,27.11
2022-07-29T17:34:34.119Z,27.18
2022-07-29T17:37:01.345Z,27.27
2022-07-29T17:39:28.504Z,27.22
2022-07-29T17:41:55.306Z,27.24
2022-07-29T17:44:22.124Z,27.11
2022-07-29T17:46:49.035Z,27.11
2022-07-29T17:49:15.888Z,27.21
2022-07-29T17:51:42.708Z,27.32
2022-07-29T17:54:09.606Z,27.33
2022-07-29T17:56:36.597Z,27.30
2022-07-29T17:59:06.703Z,27.35
2022-07-29T18:01:34.556Z,27.37
2022-07-29T18:04:02.884Z,27.38
2022-07-29T18:06:29.858Z,27.31
2022-07-29T18:08:56.773Z,27.30
2022-07-29T18:11:23.824Z,27.15
2022-07-29T18:13:50.592Z,27.32
2022-07-29T18:16:18.668Z,27.31
2022-07-29T18:18:46.000Z,27.42
2022-07-29T18:21:13.074Z,27.36
2022-07-29T18:23:40.326Z,27.33
2022-07-29T18:26:07.249Z,27.26
2022-07-29T18:28:34.241Z,27.41
2022-07-29T18:31:01.463Z,27.15
2022-07-29T18:33:28.306Z,27.23
2022-07-29T18:36:04.233Z,27.23
2022-07-29T18:38:38.455Z,27.12
2022-07-29T18:41:05.209Z,27.16
2022-07-29T18:43:31.940Z,27.01
2022-07-29T18:45:58.827Z,27.14
2022-07-29T18:48:25.679Z,27.15
2022-07-29T18:50:52.522Z,27.08
2022-07-29T18:53:19.479Z,27.02
2022-07-29T18:55:46.453Z,26.95
2022-07-29T18:58:13.245Z,26.97
2022-07-29T19:00:40.155Z,26.85
2022-07-29T19:03:08.531Z,26.89
2022-07-29T19:05:35.684Z,26.86
2022-07-29T19:08:02.554Z,26.91
2022-07-29T19:10:29.666Z,26.74
2022-07-29T19:12:57.046Z,26.74
2022-07-29T19:15:24.022Z,27.02
2022-07-29T19:17:50.854Z,26.90
2022-07-29T19:20:17.803Z,26.81
2022-07-29T19:22:45.022Z,26.89
2022-07-29T19:25:12.002Z,26.82
2022-07-29T19:27:38.863Z,26.69
2022-07-29T19:30:07.960Z,26.73
2022-07-29T19:32:34.805Z,26.70
2022-07-29T19:35:20.413Z,26.73
2022-07-29T19:37:47.246Z,26.50
2022-07-29T19:40:14.057Z,26.34
2022-07-29T19:42:40.997Z,26.26
2022-07-29T19:45:08.448Z,26.13
2022-07-29T19:47:35.332Z,25.93
2022-07-29T19:50:02.622Z,25.84
2022-07-29T19:52:29.426Z,25.83
2022-07-29T19:54:56.610Z,25.93
2022-07-29T19:57:24.213Z,25.84
2022-07-29T19:59:51.117Z,25.73
2022-07-29T20:02:17.965Z,25.65
2022-07-29T20:04:45.151Z,25.57
2022-07-29T20:07:13.176Z,25.43
2022-07-29T20:09:41.019Z,25.43
2022-07-29T20:12:11.390Z,25.37
2022-07-29T20:14:38.692Z,25.27
2022-07-29T20:17:05.546Z,25.26
2022-07-29T20:19:33.104Z,25.19
2022-07-29T20:22:00.964Z,25.18
2022-07-29T20:24:27.727Z,24.97
2022-07-29T20:26:54.618Z,25.05
2022-07-29T20:29:21.433Z,25.03
2022-07-29T20:31:52.282Z,25.03
2022-07-29T20:34:23.636Z,24.65
2022-07-29T20:36:50.611Z,24.75
2022-07-29T20:39:17.539Z,24.63
2022-07-29T20:41:44.744Z,24.83
2022-07-29T20:44:11.506Z,24.70
2022-07-29T20:46:39.575Z,24.88
2022-07-29T20:49:07.087Z,24.74
2022-07-29T20:51:43.477Z,24.66
2022-07-29T20:54:11.190Z,24.83
2022-07-29T20:56:38.354Z,24.71
2022-07-29T20:59:05.189Z,24.76
2022-07-29T21:01:32.087Z,24.84
2022-07-29T21:04:00.385Z,24.74
2022-07-29T21:06:27.372Z,24.82
2022-07-29T21:08:56.047Z,24.50
2022-07-29T21:11:44.038Z,24.70
2022-07-29T21:14:09.729Z,24.70
2022-07-29T21:16:36.689Z,24.77
2022-07-29T21:19:03.708Z,24.67
2022-07-29T21:21:30.718Z,24.80
2022-07-29T21:23:57.602Z,24.75
2022-07-29T21:26:24.430Z,24.78
2022-07-29T21:28:51.233Z,24.81
2022-07-29T21:31:18.135Z,24.62
2022-07-29T21:33:46.506Z,24.89
2022-07-29T21:36:47.710Z,24.88
2022-07-29T21:39:07.244Z,24.82
2022-07-29T21:41:34.668Z,24.87
2022-07-29T21:44:01.612Z,24.87
2022-07-29T21:46:28.573Z,24.88
2022-07-29T21:48:55.549Z,24.73
2022-07-29T21:51:22.453Z,24.83
2022-07-29T21:53:50.650Z,24.72
2022-07-29T21:56:20.128Z,24.71
2022-07-29T21:58:49.393Z,24.78
2022-07-29T22:01:16.230Z,24.54
2022-07-29T22:03:43.218Z,24.93
2022-07-29T22:06:11.323Z,24.88
2022-07-29T22:08:45.904Z,24.84
2022-07-29T22:11:13.737Z,24.92
2022-07-29T22:13:40.657Z,24.78
2022-07-29T22:16:09.722Z,24.96
2022-07-29T22:18:36.458Z,24.85
2022-07-29T22:21:03.303Z,25.07
2022-07-29T22:23:30.118Z,25.06
2022-07-29T22:25:57.369Z,24.95
2022-07-29T22:28:24.184Z,24.69
2022-07-29T22:30:51.143Z,24.85
2022-07-29T22:33:18.299Z,24.94
2022-07-29T22:35:48.998Z,24.87
2022-07-29T22:38:19.488Z,24.89
2022-07-29T22:40:48.720Z,24.75
2022-07-29T22:43:17.300Z,24.68
2022-07-29T22:45:44.460Z,24.78
2022-07-29T22:48:11.579Z,24.88
2022-07-29T22:50:39.125Z,24.97
2022-07-29T22:53:06.089Z,24.88
2022-07-29T22:55:33.143Z,25.05
2022-07-29T22:57:59.897Z,25.00
2022-07-29T23:00:27.034Z,25.02
2022-07-29T23:02:53.769Z,25.12
2022-07-29T23:05:20.557Z,25.15
2022-07-29T23:07:47.623Z,25.19
2022-07-29T23:10:14.583Z,25.15
2022-07-29T23:12:41.325Z,25.24
2022-07-29T23:15:08.387Z,25.16
2022-07-29T23:17:36.330Z,25.14
2022-07-29T23:20:06.482Z,25.24
2022-07-29T23:22:33.374Z,25.24
2022-07-29T23:25:07.708Z,25.05
2022-07-29T23:27:34.600Z,25.26
2022-07-29T23:30:01.440Z,25.17
2022-07-29T23:32:28.228Z,25.07
2022-07-29T23:34:55.088Z,25.24
2022-07-29T23:37:22.142Z,24.95
2022-07-29T23:39:48.963Z,25.25
2022-07-29T23:42:15.841Z,25.15
2022-07-29T23:44:43.078Z,25.12
2022-07-29T23:47:09.977Z,24.83
2022-07-29T23:49:36.944Z,25.01
2022-07-29T23:52:03.843Z,24.97
2022-07-29T23:54:30.695Z,24.95
2022-07-29T23:56:58.334Z,24.77
2022-07-29T23:59:25.503Z,24.68
